Tuesday, November 21, 2017, 10:49 AM EST
Back to Local

KSMQ, Somerville Somerset Airport

Location: Bedminster, NJ, United States Lat: 40.617
Local Time: 10:49 AM EST (15:49 GMT) Lon: -74.667
Time Zone: US/Eastern Elev: 104 ft

Show me the last for .
Show Decoded

2017-11-21 09:53 METAR KSMQ 211453Z AUTO 19004KT 10SM CLR 07/01 A3012 RMK AO2 SLP200 T00720011
                 55002 =
2017-11-21 08:53 METAR KSMQ 211353Z AUTO 00000KT 10SM CLR 03/00 A3012 RMK AO2 SLP200 T00280000 =
2017-11-21 07:53 METAR KSMQ 211253Z AUTO 31003KT 10SM CLR M03/M04 A3012 RMK AO2 SLP202 T10281039
                 =
2017-11-21 06:53 METAR KSMQ 211153Z AUTO 00000KT 10SM CLR M04/M05 A3012 RMK AO2 SLP203 I1000
                 I6000 T10391050 11017 21044 53003 =
2017-11-21 05:53 METAR KSMQ 211053Z AUTO 00000KT 10SM CLR M04/M04 A3012 RMK AO2 SLP201 I1000
                 T10391044 =
2017-11-21 04:53 METAR KSMQ 210953Z AUTO 32004KT 10SM CLR M03/M04 A3011 RMK AO2 SLP198 T10331044
                 =
2017-11-21 03:53 METAR KSMQ 210853Z AUTO 00000KT 10SM CLR M03/M04 A3011 RMK AO2 SLP199 T10281039
                 58004 =
2017-11-21 02:53 METAR KSMQ 210753Z AUTO 00000KT 10SM CLR M02/M04 A3013 RMK AO2 SLP203 T10221039
                 =
2017-11-21 01:53 METAR KSMQ 210653Z AUTO 00000KT 10SM CLR M02/M04 A3013 RMK AO2 SLP204 T10171039
                 =
2017-11-21 00:53 METAR KSMQ 210553Z AUTO 00000KT 10SM CLR M02/M04 A3012 RMK AO2 SLP202 T10221039
                 10033 21028 50002 =
2017-11-20 23:53 METAR KSMQ 210453Z AUTO 00000KT 10SM CLR M02/M03 A3013 RMK AO2 SLP204 T10171033
                 400891022 =
2017-11-20 22:53 METAR KSMQ 210353Z AUTO 00000KT 10SM CLR M01/M03 A3013 RMK AO2 SLP203 T10111033
                 =
2017-11-20 21:53 METAR KSMQ 210253Z AUTO 00000KT 10SM CLR M01/M03 A3012 RMK AO2 SLP202 T10111033
                 53006 =
2017-11-20 20:53 METAR KSMQ 210153Z AUTO 00000KT 10SM CLR 02/M04 A3011 RMK AO2 SLP197 T00171039 =
2017-11-20 19:53 METAR KSMQ 210053Z AUTO 19003KT 10SM CLR 02/M04 A3011 RMK AO2 SLP199 T00171039 =
2017-11-20 18:53 METAR KSMQ 202353Z AUTO 17003KT 10SM CLR 02/M04 A3010 RMK AO2 SLP196 T00221039
                 10089 20022 53009 =
2017-11-20 17:53 METAR KSMQ 202253Z AUTO VRB04KT 10SM CLR 06/M04 A3010 RMK AO2 SLP193 T00561039 =
2017-11-20 16:53 METAR KSMQ 202153Z AUTO VRB03KT 10SM CLR 06/M04 A3008 RMK AO2 SLP187 T00611039 =
2017-11-20 15:53 METAR KSMQ 202053Z AUTO VRB03KT 10SM CLR 07/M04 A3008 RMK AO2 SLP186 T00721039
                 53014 =
2017-11-20 14:53 METAR KSMQ 201953Z AUTO 29011G15KT 10SM FEW060 08/M04 A3005 RMK AO2 SLP176
                 T00831044 =
2017-11-20 13:53 METAR KSMQ 201853Z AUTO 27009G17KT 230V300 10SM CLR 08/M04 A3004 RMK AO2 SLP173
                 T00831044 =
2017-11-20 12:53 METAR KSMQ 201753Z AUTO 28006G16KT 10SM FEW055 08/M05 A3003 RMK AO2 SLP172
                 T00781050 10078 20017 58004 =
2017-11-20 11:53 METAR KSMQ 201653Z AUTO 28010G20KT 260V330 10SM CLR 07/M06 A3004 RMK AO2 SLP173
                 T00721056 =
2017-11-20 10:53 METAR KSMQ 201553Z AUTO 28009G20KT 220V330 10SM CLR 07/M05 A3005 RMK AO2 PK WND
                 31029/1504 SLP176 T00671050 =

Support USWX by starting your Amazon purchase here.